sensor_id;sensor_type;location;lat;lon;timestamp;pressure;altitude;pressure_sealevel;temperature;humidity
74834;BME280;63361;52.384;20.930;2022-11-20T00:00:45;100658.25;;;-5.16;86.10
74834;BME280;63361;52.384;20.930;2022-11-20T00:03:10;100628.06;;;-5.28;85.19
74834;BME280;63361;52.384;20.930;2022-11-20T00:05:35;100652.66;;;-5.13;84.91
74834;BME280;63361;52.384;20.930;2022-11-20T00:08:01;100666.97;;;-5.08;85.55
74834;BME280;63361;52.384;20.930;2022-11-20T00:10:27;100659.91;;;-5.15;85.26
74834;BME280;63361;52.384;20.930;2022-11-20T00:12:52;100662.03;;;-5.11;84.68
74834;BME280;63361;52.384;20.930;2022-11-20T00:15:17;100652.72;;;-5.21;85.76
74834;BME280;63361;52.384;20.930;2022-11-20T00:17:43;100657.84;;;-5.28;86.00
74834;BME280;63361;52.384;20.930;2022-11-20T00:20:09;100663.44;;;-5.31;86.27
74834;BME280;63361;52.384;20.930;2022-11-20T00:22:34;100663.47;;;-5.39;86.56
74834;BME280;63361;52.384;20.930;2022-11-20T00:25:00;100646.94;;;-5.56;87.01
74834;BME280;63361;52.384;20.930;2022-11-20T00:27:25;100645.00;;;-5.70;87.89
74834;BME280;63361;52.384;20.930;2022-11-20T00:29:50;100653.41;;;-5.83;87.68
74834;BME280;63361;52.384;20.930;2022-11-20T00:32:16;100662.25;;;-5.76;88.44
74834;BME280;63361;52.384;20.930;2022-11-20T00:34:41;100652.22;;;-5.80;87.94
74834;BME280;63361;52.384;20.930;2022-11-20T00:37:06;100652.22;;;-5.80;88.88
74834;BME280;63361;52.384;20.930;2022-11-20T00:39:32;100658.31;;;-5.72;88.88
74834;BME280;63361;52.384;20.930;2022-11-20T00:41:57;100671.41;;;-5.55;87.79
74834;BME280;63361;52.384;20.930;2022-11-20T00:44:22;100667.75;;;-5.38;87.42
74834;BME280;63361;52.384;20.930;2022-11-20T00:46:48;100654.44;;;-5.37;86.50
74834;BME280;63361;52.384;20.930;2022-11-20T00:49:13;100641.47;;;-5.46;86.69
74834;BME280;63361;52.384;20.930;2022-11-20T00:51:38;100620.13;;;-5.51;87.22
74834;BME280;63361;52.384;20.930;2022-11-20T00:54:04;100628.94;;;-5.36;85.88
74834;BME280;63361;52.384;20.930;2022-11-20T00:56:29;100619.09;;;-5.42;85.36
74834;BME280;63361;52.384;20.930;2022-11-20T00:58:55;100643.53;;;-5.25;86.30
74834;BME280;63361;52.384;20.930;2022-11-20T01:01:23;100643.03;;;-5.21;86.53
74834;BME280;63361;52.384;20.930;2022-11-20T01:03:50;100633.66;;;-5.23;85.49
74834;BME280;63361;52.384;20.930;2022-11-20T01:06:24;100619.25;;;-5.36;86.29
74834;BME280;63361;52.384;20.930;2022-11-20T01:08:52;100645.47;;;-5.19;86.01
74834;BME280;63361;52.384;20.930;2022-11-20T01:11:20;100639.06;;;-5.25;86.42
74834;BME280;63361;52.384;20.930;2022-11-20T01:13:47;100646.75;;;-5.15;86.46
74834;BME280;63361;52.384;20.930;2022-11-20T01:16:19;100648.91;;;-5.19;86.48
74834;BME280;63361;52.384;20.930;2022-11-20T01:18:47;100636.28;;;-5.23;86.37
74834;BME280;63361;52.384;20.930;2022-11-20T01:21:16;100629.06;;;-5.29;86.16
74834;BME280;63361;52.384;20.930;2022-11-20T01:23:44;100617.59;;;-5.37;86.53
74834;BME280;63361;52.384;20.930;2022-11-20T01:26:12;100625.00;;;-5.40;86.48
74834;BME280;63361;52.384;20.930;2022-11-20T01:28:39;100619.09;;;-5.42;87.33
74834;BME280;63361;52.384;20.930;2022-11-20T01:33:49;100582.50;;;-5.60;86.88
74834;BME280;63361;52.384;20.930;2022-11-20T01:36:15;100629.06;;;-5.29;87.00
74834;BME280;63361;52.384;20.930;2022-11-20T01:38:42;100619.59;;;-5.39;87.13
74834;BME280;63361;52.384;20.930;2022-11-20T01:41:08;100641.41;;;-5.30;86.17
74834;BME280;63361;52.384;20.930;2022-11-20T01:43:34;100620.91;;;-5.43;86.24
74834;BME280;63361;52.384;20.930;2022-11-20T01:48:33;100628.13;;;-5.45;86.93
74834;BME280;63361;52.384;20.930;2022-11-20T01:51:03;100632.41;;;-5.44;87.21
74834;BME280;63361;52.384;20.930;2022-11-20T01:53:32;100627.31;;;-5.37;86.64
74834;BME280;63361;52.384;20.930;2022-11-20T01:56:01;100629.28;;;-5.47;87.34
74834;BME280;63361;52.384;20.930;2022-11-20T01:58:32;100630.44;;;-5.42;87.26
74834;BME280;63361;52.384;20.930;2022-11-20T02:00:59;100625.00;;;-5.40;87.61
74834;BME280;63361;52.384;20.930;2022-11-20T02:03:25;100617.63;;;-5.45;87.66
74834;BME280;63361;52.384;20.930;2022-11-20T02:05:55;100586.31;;;-5.62;87.44
74834;BME280;63361;52.384;20.930;2022-11-20T02:08:23;100615.81;;;-5.44;87.05
74834;BME280;63361;52.384;20.930;2022-11-20T02:10:48;100618.09;;;-5.41;87.19
74834;BME280;63361;52.384;20.930;2022-11-20T02:13:14;100627.91;;;-5.27;87.53
74834;BME280;63361;52.384;20.930;2022-11-20T02:15:58;100605.88;;;-5.26;86.80
74834;BME280;63361;52.384;20.930;2022-11-20T02:18:24;100602.91;;;-5.23;86.68
74834;BME280;63361;52.384;20.930;2022-11-20T02:21:03;100595.66;;;-5.21;86.56
74834;BME280;63361;52.384;20.930;2022-11-20T02:26:15;100593.78;;;-5.12;85.14
74834;BME280;63361;52.384;20.930;2022-11-20T02:28:42;100613.09;;;-4.97;85.27
74834;BME280;63361;52.384;20.930;2022-11-20T02:31:07;100599.03;;;-5.04;85.29
74834;BME280;63361;52.384;20.930;2022-11-20T02:33:32;100598.66;;;-5.01;85.17
74834;BME280;63361;52.384;20.930;2022-11-20T02:35:58;100598.13;;;-4.97;84.73
74834;BME280;63361;52.384;20.930;2022-11-20T02:38:23;100604.88;;;-4.94;84.99
74834;BME280;63361;52.384;20.930;2022-11-20T02:40:49;100594.50;;;-4.96;84.85
74834;BME280;63361;52.384;20.930;2022-11-20T02:43:15;100610.53;;;-4.82;84.79
74834;BME280;63361;52.384;20.930;2022-11-20T02:45:40;100601.72;;;-4.89;84.44
74834;BME280;63361;52.384;20.930;2022-11-20T02:48:06;100615.00;;;-4.83;84.21
74834;BME280;63361;52.384;20.930;2022-11-20T02:50:32;100621.59;;;-4.87;84.96
74834;BME280;63361;52.384;20.930;2022-11-20T02:52:57;100606.84;;;-4.96;85.18
74834;BME280;63361;52.384;20.930;2022-11-20T02:55:22;100623.06;;;-4.84;84.37
74834;BME280;63361;52.384;20.930;2022-11-20T02:57:48;100609.97;;;-4.92;84.89
74834;BME280;63361;52.384;20.930;2022-11-20T03:00:13;100620.22;;;-4.75;84.63
74834;BME280;63361;52.384;20.930;2022-11-20T03:02:39;100612.06;;;-4.65;83.55
74834;BME280;63361;52.384;20.930;2022-11-20T03:05:04;100591.94;;;-4.81;83.85
74834;BME280;63361;52.384;20.930;2022-11-20T03:07:30;100605.84;;;-4.72;84.09
74834;BME280;63361;52.384;20.930;2022-11-20T03:09:55;100596.88;;;-4.78;83.78
74834;BME280;63361;52.384;20.930;2022-11-20T03:12:20;100580.94;;;-4.84;84.79
74834;BME280;63361;52.384;20.930;2022-11-20T03:14:46;100600.78;;;-4.74;83.75
74834;BME280;63361;52.384;20.930;2022-11-20T03:17:11;100597.22;;;-4.81;84.31
74834;BME280;63361;52.384;20.930;2022-11-20T03:19:36;100594.56;;;-4.81;84.59
74834;BME280;63361;52.384;20.930;2022-11-20T03:22:02;100615.56;;;-4.73;84.12
74834;BME280;63361;52.384;20.930;2022-11-20T03:24:28;100602.47;;;-4.81;84.77
74834;BME280;63361;52.384;20.930;2022-11-20T03:26:53;100596.88;;;-4.78;84.21
74834;BME280;63361;52.384;20.930;2022-11-20T03:29:18;100588.84;;;-4.84;83.99
74834;BME280;63361;52.384;20.930;2022-11-20T03:31:44;100582.00;;;-4.93;84.79
74834;BME280;63361;52.384;20.930;2022-11-20T03:34:11;100605.41;;;-4.76;84.94
74834;BME280;63361;52.384;20.930;2022-11-20T03:36:41;100600.50;;;-4.79;84.88
74834;BME280;63361;52.384;20.930;2022-11-20T03:39:07;100604.03;;;-4.72;84.93
74834;BME280;63361;52.384;20.930;2022-11-20T03:41:37;100597.78;;;-4.71;85.09
74834;BME280;63361;52.384;20.930;2022-11-20T03:44:04;100582.41;;;-4.82;85.06
74834;BME280;63361;52.384;20.930;2022-11-20T03:46:30;100585.03;;;-4.82;84.79
74834;BME280;63361;52.384;20.930;2022-11-20T03:48:55;100581.75;;;-4.84;84.97
74834;BME280;63361;52.384;20.930;2022-11-20T03:51:24;100597.34;;;-4.74;85.67
74834;BME280;63361;52.384;20.930;2022-11-20T03:53:52;100584.13;;;-4.89;85.55
74834;BME280;63361;52.384;20.930;2022-11-20T03:56:20;100591.63;;;-4.86;86.04
74834;BME280;63361;52.384;20.930;2022-11-20T03:58:46;100581.53;;;-4.97;85.87
74834;BME280;63361;52.384;20.930;2022-11-20T04:01:17;100577.44;;;-5.00;85.99
74834;BME280;63361;52.384;20.930;2022-11-20T04:03:43;100584.81;;;-4.95;85.51
74834;BME280;63361;52.384;20.930;2022-11-20T04:06:13;100601.53;;;-4.88;86.07
74834;BME280;63361;52.384;20.930;2022-11-20T04:08:40;100586.97;;;-4.99;85.83
74834;BME280;63361;52.384;20.930;2022-11-20T04:11:13;100594.50;;;-4.96;86.40
74834;BME280;63361;52.384;20.930;2022-11-20T04:13:40;100595.44;;;-5.11;86.44
74834;BME280;63361;52.384;20.930;2022-11-20T04:16:06;100600.22;;;-5.15;87.70
74834;BME280;63361;52.384;20.930;2022-11-20T04:18:32;100553.41;;;-5.50;86.91
74834;BME280;63361;52.384;20.930;2022-11-20T04:20:58;100598.91;;;-5.19;87.02
74834;BME280;63361;52.384;20.930;2022-11-20T04:23:24;100596.00;;;-5.24;87.83
74834;BME280;63361;52.384;20.930;2022-11-20T04:25:49;100595.84;;;-5.31;87.75
74834;BME280;63361;52.384;20.930;2022-11-20T04:28:15;100595.03;;;-5.31;87.97
74834;BME280;63361;52.384;20.930;2022-11-20T04:30:40;100584.84;;;-5.34;88.36
74834;BME280;63361;52.384;20.930;2022-11-20T04:33:05;100601.09;;;-5.22;88.04
74834;BME280;63361;52.384;20.930;2022-11-20T04:35:34;100584.75;;;-5.41;88.13
74834;BME280;63361;52.384;20.930;2022-11-20T04:37:59;100542.31;;;-5.69;88.74
74834;BME280;63361;52.384;20.930;2022-11-20T04:40:25;100588.97;;;-5.32;89.18
74834;BME280;63361;52.384;20.930;2022-11-20T04:42:50;100585.59;;;-5.48;88.50
74834;BME280;63361;52.384;20.930;2022-11-20T04:45:16;100597.56;;;-5.46;89.30
74834;BME280;63361;52.384;20.930;2022-11-20T04:47:41;100576.78;;;-5.63;89.85
74834;BME280;63361;52.384;20.930;2022-11-20T04:50:06;100602.88;;;-5.54;90.02
74834;BME280;63361;52.384;20.930;2022-11-20T04:52:32;100564.22;;;-5.84;90.17
74834;BME280;63361;52.384;20.930;2022-11-20T04:54:57;100579.28;;;-5.70;90.91
74834;BME280;63361;52.384;20.930;2022-11-20T04:57:23;100568.28;;;-5.74;90.81
74834;BME280;63361;52.384;20.930;2022-11-20T04:59:48;100573.53;;;-5.74;91.54
74834;BME280;63361;52.384;20.930;2022-11-20T05:02:13;100561.69;;;-6.00;91.91
74834;BME280;63361;52.384;20.930;2022-11-20T05:04:39;100565.97;;;-6.24;92.50
74834;BME280;63361;52.384;20.930;2022-11-20T05:07:04;100577.16;;;-6.14;93.22
74834;BME280;63361;52.384;20.930;2022-11-20T05:09:30;100531.06;;;-6.32;93.76
74834;BME280;63361;52.384;20.930;2022-11-20T05:11:55;100568.78;;;-6.17;93.13
74834;BME280;63361;52.384;20.930;2022-11-20T05:14:20;100549.28;;;-6.47;93.71
74834;BME280;63361;52.384;20.930;2022-11-20T05:16:46;100568.16;;;-6.44;94.23
74834;BME280;63361;52.384;20.930;2022-11-20T05:19:11;100546.69;;;-6.63;94.69
74834;BME280;63361;52.384;20.930;2022-11-20T05:21:36;100554.22;;;-6.60;95.41
74834;BME280;63361;52.384;20.930;2022-11-20T05:24:02;100546.84;;;-6.81;95.15
74834;BME280;63361;52.384;20.930;2022-11-20T05:26:27;100567.50;;;-6.70;95.79
74834;BME280;63361;52.384;20.930;2022-11-20T05:28:53;100547.81;;;-6.82;96.20
74834;BME280;63361;52.384;20.930;2022-11-20T05:31:23;100533.53;;;-7.12;95.83
74834;BME280;63361;52.384;20.930;2022-11-20T05:33:49;100545.84;;;-7.13;95.84
74834;BME280;63361;52.384;20.930;2022-11-20T05:36:15;100524.38;;;-7.00;95.75
74834;BME280;63361;52.384;20.930;2022-11-20T05:38:41;100560.44;;;-6.94;95.83
74834;BME280;63361;52.384;20.930;2022-11-20T05:41:12;100551.41;;;-6.99;96.82
74834;BME280;63361;52.384;20.930;2022-11-20T05:43:40;100543.06;;;-7.19;96.55
74834;BME280;63361;52.384;20.930;2022-11-20T05:46:07;100542.34;;;-7.37;96.18
74834;BME280;63361;52.384;20.930;2022-11-20T05:48:33;100545.16;;;-7.23;96.40
74834;BME280;63361;52.384;20.930;2022-11-20T05:51:01;100561.53;;;-7.37;97.25
74834;BME280;63361;52.384;20.930;2022-11-20T05:53:26;100565.22;;;-7.56;97.47
74834;BME280;63361;52.384;20.930;2022-11-20T05:56:02;100560.97;;;-7.57;98.17
74834;BME280;63361;52.384;20.930;2022-11-20T05:58:29;100540.31;;;-7.68;98.56
74834;BME280;63361;52.384;20.930;2022-11-20T06:00:54;100555.28;;;-7.44;98.49
74834;BME280;63361;52.384;20.930;2022-11-20T06:03:20;100516.41;;;-7.65;98.53
74834;BME280;63361;52.384;20.930;2022-11-20T06:05:46;100543.63;;;-7.50;97.65
74834;BME280;63361;52.384;20.930;2022-11-20T06:08:12;100539.78;;;-7.79;98.58
74834;BME280;63361;52.384;20.930;2022-11-20T06:10:37;100540.56;;;-7.87;98.22
74834;BME280;63361;52.384;20.930;2022-11-20T06:13:02;100555.38;;;-7.62;98.76
74834;BME280;63361;52.384;20.930;2022-11-20T06:15:28;100565.84;;;-7.70;98.04
74834;BME280;63361;52.384;20.930;2022-11-20T06:17:54;100552.38;;;-7.83;98.73
74834;BME280;63361;52.384;20.930;2022-11-20T06:20:21;100552.38;;;-7.83;99.14
74834;BME280;63361;52.384;20.930;2022-11-20T06:22:47;100574.06;;;-7.65;98.73
74834;BME280;63361;52.384;20.930;2022-11-20T06:25:13;100561.78;;;-7.56;98.60
74834;BME280;63361;52.384;20.930;2022-11-20T06:27:38;100559.00;;;-7.55;99.27
74834;BME280;63361;52.384;20.930;2022-11-20T06:30:04;100567.63;;;-7.20;98.47
74834;BME280;63361;52.384;20.930;2022-11-20T06:32:30;100561.25;;;-7.10;98.88
74834;BME280;63361;52.384;20.930;2022-11-20T06:34:55;100552.75;;;-7.03;98.41
74834;BME280;63361;52.384;20.930;2022-11-20T06:37:20;100539.81;;;-6.89;98.08
74834;BME280;63361;52.384;20.930;2022-11-20T06:39:46;100535.03;;;-6.69;98.23
74834;BME280;63361;52.384;20.930;2022-11-20T06:42:11;100535.97;;;-5.82;93.97
74834;BME280;63361;52.384;20.930;2022-11-20T06:44:36;100538.34;;;-4.65;87.82
74834;BME280;63361;52.384;20.930;2022-11-20T06:47:02;100509.56;;;-3.64;83.42
74834;BME280;63361;52.384;20.930;2022-11-20T06:49:27;100523.41;;;-3.26;80.07
74834;BME280;63361;52.384;20.930;2022-11-20T06:51:53;100548.38;;;-2.08;75.55
74834;BME280;63361;52.384;20.930;2022-11-20T06:54:18;100530.69;;;-2.08;75.90
74834;BME280;63361;52.384;20.930;2022-11-20T06:56:46;100532.44;;;-1.39;71.56
74834;BME280;63361;52.384;20.930;2022-11-20T06:59:13;100518.28;;;-2.07;71.99
74834;BME280;63361;52.384;20.930;2022-11-20T07:01:38;100535.28;;;-1.34;71.41
74834;BME280;63361;52.384;20.930;2022-11-20T07:04:03;100505.25;;;-1.07;68.70
74834;BME280;63361;52.384;20.930;2022-11-20T07:06:29;100515.03;;;-0.42;66.55
74834;BME280;63361;52.384;20.930;2022-11-20T07:08:54;100507.88;;;-0.28;65.76
74834;BME280;63361;52.384;20.930;2022-11-20T07:11:20;100530.25;;;0.09;64.27
74834;BME280;63361;52.384;20.930;2022-11-20T07:13:45;100530.91;;;1.25;61.43
74834;BME280;63361;52.384;20.930;2022-11-20T07:16:12;100507.06;;;0.81;60.08
74834;BME280;63361;52.384;20.930;2022-11-20T07:18:38;100534.72;;;0.22;62.14
74834;BME280;63361;52.384;20.930;2022-11-20T07:21:05;100540.16;;;1.48;59.06
74834;BME280;63361;52.384;20.930;2022-11-20T07:23:32;100536.22;;;2.36;56.61
74834;BME280;63361;52.384;20.930;2022-11-20T07:25:57;100519.16;;;0.32;60.48
74834;BME280;63361;52.384;20.930;2022-11-20T07:28:23;100511.72;;;0.47;61.42
74834;BME280;63361;52.384;20.930;2022-11-20T07:30:52;100527.81;;;-2.41;68.98
74834;BME280;63361;52.384;20.930;2022-11-20T07:33:18;100524.34;;;-4.13;77.75
74834;BME280;63361;52.384;20.930;2022-11-20T07:35:45;100509.16;;;-4.26;80.30
74834;BME280;63361;52.384;20.930;2022-11-20T07:38:11;100523.03;;;-4.47;81.77
74834;BME280;63361;52.384;20.930;2022-11-20T07:40:36;100515.00;;;-4.68;83.19
74834;BME280;63361;52.384;20.930;2022-11-20T07:43:01;100482.94;;;-4.57;83.19
74834;BME280;63361;52.384;20.930;2022-11-20T07:45:27;100510.59;;;-1.48;75.02
74834;BME280;63361;52.384;20.930;2022-11-20T07:47:52;100495.03;;;0.78;63.60
74834;BME280;63361;52.384;20.930;2022-11-20T07:50:18;100487.50;;;1.07;60.31
74834;BME280;63361;52.384;20.930;2022-11-20T07:52:44;100488.22;;;2.25;56.54
74834;BME280;63361;52.384;20.930;2022-11-20T07:55:10;100462.50;;;3.20;53.97
74834;BME280;63361;52.384;20.930;2022-11-20T07:57:35;100510.16;;;2.87;55.39
74834;BME280;63361;52.384;20.930;2022-11-20T08:00:02;100512.13;;;2.91;53.82
74834;BME280;63361;52.384;20.930;2022-11-20T08:02:28;100496.84;;;4.10;51.60
74834;BME280;63361;52.384;20.930;2022-11-20T08:04:54;100493.34;;;5.23;49.10
74834;BME280;63361;52.384;20.930;2022-11-20T08:07:19;100501.84;;;4.75;47.67
74834;BME280;63361;52.384;20.930;2022-11-20T08:09:44;100504.19;;;5.00;48.68
74834;BME280;63361;52.384;20.930;2022-11-20T08:12:18;100513.63;;;5.19;48.33
74834;BME280;63361;52.384;20.930;2022-11-20T08:15:04;100511.56;;;4.24;50.18
74834;BME280;63361;52.384;20.930;2022-11-20T08:17:29;100505.19;;;4.53;49.43
74834;BME280;63361;52.384;20.930;2022-11-20T08:19:55;100491.16;;;4.46;50.20
74834;BME280;63361;52.384;20.930;2022-11-20T08:22:20;100481.25;;;6.75;45.16
74834;BME280;63361;52.384;20.930;2022-11-20T08:24:46;100475.59;;;8.14;40.98
74834;BME280;63361;52.384;20.930;2022-11-20T08:27:11;100471.84;;;7.68;40.71
74834;BME280;63361;52.384;20.930;2022-11-20T08:29:37;100473.31;;;6.14;44.29
74834;BME280;63361;52.384;20.930;2022-11-20T08:32:02;100493.44;;;5.45;45.08
74834;BME280;63361;52.384;20.930;2022-11-20T08:34:27;100494.06;;;5.85;45.21
74834;BME280;63361;52.384;20.930;2022-11-20T08:36:53;100485.03;;;5.19;46.10
74834;BME280;63361;52.384;20.930;2022-11-20T08:39:18;100458.56;;;5.23;47.67
74834;BME280;63361;52.384;20.930;2022-11-20T08:41:44;100470.28;;;3.33;50.32
74834;BME280;63361;52.384;20.930;2022-11-20T08:44:09;100467.56;;;1.65;56.34
74834;BME280;63361;52.384;20.930;2022-11-20T08:46:40;100471.38;;;-0.46;63.93
74834;BME280;63361;52.384;20.930;2022-11-20T08:49:13;100466.31;;;-0.80;65.77
74834;BME280;63361;52.384;20.930;2022-11-20T08:51:39;100470.00;;;-0.68;65.90
74834;BME280;63361;52.384;20.930;2022-11-20T08:54:05;100451.22;;;-0.99;66.83
74834;BME280;63361;52.384;20.930;2022-11-20T08:56:31;100464.19;;;-0.12;64.99
74834;BME280;63361;52.384;20.930;2022-11-20T08:58:57;100467.94;;;-0.46;66.27
74834;BME280;63361;52.384;20.930;2022-11-20T09:01:25;100430.84;;;0.81;61.18
74834;BME280;63361;52.384;20.930;2022-11-20T09:03:51;100458.53;;;0.67;61.63
74834;BME280;63361;52.384;20.930;2022-11-20T09:06:16;100468.44;;;0.47;62.09
74834;BME280;63361;52.384;20.930;2022-11-20T09:08:42;100458.34;;;0.17;62.85
74834;BME280;63361;52.384;20.930;2022-11-20T09:11:07;100465.47;;;-0.61;64.86
74834;BME280;63361;52.384;20.930;2022-11-20T09:13:34;100472.19;;;-1.18;68.72
74834;BME280;63361;52.384;20.930;2022-11-20T09:16:03;100463.66;;;-0.67;67.03
74834;BME280;63361;52.384;20.930;2022-11-20T09:18:30;100443.28;;;-0.66;66.21
74834;BME280;63361;52.384;20.930;2022-11-20T09:21:00;100450.66;;;0.47;62.95
74834;BME280;63361;52.384;20.930;2022-11-20T09:23:27;100463.34;;;0.77;61.88
74834;BME280;63361;52.384;20.930;2022-11-20T09:25:52;100454.81;;;0.37;62.40
74834;BME280;63361;52.384;20.930;2022-11-20T09:28:20;100446.72;;;1.19;60.14
74834;BME280;63361;52.384;20.930;2022-11-20T09:30:45;100431.97;;;1.66;58.62
74834;BME280;63361;52.384;20.930;2022-11-20T09:33:11;100426.38;;;2.23;55.98
74834;BME280;63361;52.384;20.930;2022-11-20T09:35:36;100432.75;;;0.99;60.10
74834;BME280;63361;52.384;20.930;2022-11-20T09:38:08;100434.81;;;0.65;61.18
74834;BME280;63361;52.384;20.930;2022-11-20T09:40:35;100432.38;;;0.64;62.41
74834;BME280;63361;52.384;20.930;2022-11-20T09:54:21;100435.41;;;2.03;58.32
74834;BME280;63361;52.384;20.930;2022-11-20T09:56:53;100408.31;;;0.27;63.40
74834;BME280;63361;52.384;20.930;2022-11-20T09:59:39;100428.19;;;0.81;62.79
74834;BME280;63361;52.384;20.930;2022-11-20T10:05:15;100415.63;;;2.29;57.56
74834;BME280;63361;52.384;20.930;2022-11-20T10:10:15;100413.88;;;1.07;61.07
74834;BME280;63361;52.384;20.930;2022-11-20T10:21:08;100404.31;;;0.12;66.51
74834;BME280;63361;52.384;20.930;2022-11-20T10:29:13;100413.97;;;-0.01;66.74
74834;BME280;63361;52.384;20.930;2022-11-20T10:31:44;100387.88;;;0.91;63.80
74834;BME280;63361;52.384;20.930;2022-11-20T10:36:58;100389.00;;;4.28;53.00
74834;BME280;63361;52.384;20.930;2022-11-20T10:39:35;100384.53;;;4.33;52.37
74834;BME280;63361;52.384;20.930;2022-11-20T10:42:02;100376.38;;;2.66;56.91
74834;BME280;63361;52.384;20.930;2022-11-20T10:44:29;100397.09;;;4.33;54.35
74834;BME280;63361;52.384;20.930;2022-11-20T10:47:17;100406.50;;;4.35;52.63
74834;BME280;63361;52.384;20.930;2022-11-20T10:49:47;100400.69;;;4.38;52.50
74834;BME280;63361;52.384;20.930;2022-11-20T10:53:25;100398.63;;;3.88;53.49
74834;BME280;63361;52.384;20.930;2022-11-20T10:55:33;100406.16;;;4.32;54.18
74834;BME280;63361;52.384;20.930;2022-11-20T11:01:17;100397.28;;;3.74;55.16
74834;BME280;63361;52.384;20.930;2022-11-20T11:03:44;100381.94;;;4.21;53.99
74834;BME280;63361;52.384;20.930;2022-11-20T11:06:15;100389.66;;;5.52;51.05
74834;BME280;63361;52.384;20.930;2022-11-20T11:08:47;100366.00;;;6.26;47.89
74834;BME280;63361;52.384;20.930;2022-11-20T11:11:22;100375.31;;;5.58;50.60
74834;BME280;63361;52.384;20.930;2022-11-20T11:13:48;100374.47;;;4.52;51.87
74834;BME280;63361;52.384;20.930;2022-11-20T11:16:24;100371.47;;;4.48;52.69
74834;BME280;63361;52.384;20.930;2022-11-20T11:18:51;100374.22;;;4.53;52.66
74834;BME280;63361;52.384;20.930;2022-11-20T11:21:22;100376.75;;;4.03;53.43
74834;BME280;63361;52.384;20.930;2022-11-20T11:23:57;100328.09;;;2.98;55.56
74834;BME280;63361;52.384;20.930;2022-11-20T11:26:23;100368.34;;;4.68;51.79
74834;BME280;63361;52.384;20.930;2022-11-20T11:29:00;100356.66;;;4.12;52.83
74834;BME280;63361;52.384;20.930;2022-11-20T11:31:33;100362.31;;;4.16;53.16
74834;BME280;63361;52.384;20.930;2022-11-20T11:36:32;100347.31;;;4.60;51.61
74834;BME280;63361;52.384;20.930;2022-11-20T11:38:58;100367.56;;;4.39;52.82
74834;BME280;63361;52.384;20.930;2022-11-20T11:41:31;100363.44;;;3.28;55.05
74834;BME280;63361;52.384;20.930;2022-11-20T11:44:04;100364.50;;;3.04;56.65
74834;BME280;63361;52.384;20.930;2022-11-20T11:46:58;100319.31;;;1.54;60.49
74834;BME280;63361;52.384;20.930;2022-11-20T11:49:23;100346.69;;;2.09;60.57
74834;BME280;63361;52.384;20.930;2022-11-20T11:54:45;100356.03;;;3.30;57.22
74834;BME280;63361;52.384;20.930;2022-11-20T11:57:28;100340.44;;;3.62;56.10
74834;BME280;63361;52.384;20.930;2022-11-20T12:00:08;100353.56;;;3.64;54.65
74834;BME280;63361;52.384;20.930;2022-11-20T12:02:38;100344.59;;;3.98;54.19
74834;BME280;63361;52.384;20.930;2022-11-20T12:10:17;100339.53;;;3.45;54.82
74834;BME280;63361;52.384;20.930;2022-11-20T12:12:45;100324.78;;;3.54;55.04
74834;BME280;63361;52.384;20.930;2022-11-20T12:15:36;100328.16;;;3.49;55.73
74834;BME280;63361;52.384;20.930;2022-11-20T12:18:15;100322.13;;;3.82;55.20
74834;BME280;63361;52.384;20.930;2022-11-20T12:21:31;100329.13;;;4.12;53.63
74834;BME280;63361;52.384;20.930;2022-11-20T12:26:03;100320.38;;;3.88;54.04
74834;BME280;63361;52.384;20.930;2022-11-20T12:28:35;100319.44;;;4.22;53.57
74834;BME280;63361;52.384;20.930;2022-11-20T12:42:02;100303.75;;;2.71;58.20
74834;BME280;63361;52.384;20.930;2022-11-20T12:45:12;100257.28;;;2.55;57.30
74834;BME280;63361;52.384;20.930;2022-11-20T12:47:51;100301.19;;;2.76;57.46
74834;BME280;63361;52.384;20.930;2022-11-20T12:56:43;100287.91;;;3.51;54.71
74834;BME280;63361;52.384;20.930;2022-11-20T13:05:19;100281.44;;;1.89;60.28
74834;BME280;63361;52.384;20.930;2022-11-20T13:07:47;100270.28;;;1.50;61.32
74834;BME280;63361;52.384;20.930;2022-11-20T13:10:35;100267.09;;;1.60;61.16
74834;BME280;63361;52.384;20.930;2022-11-20T13:16:15;100268.06;;;1.29;62.79
74834;BME280;63361;52.384;20.930;2022-11-20T13:18:42;100251.16;;;1.23;63.14
74834;BME280;63361;52.384;20.930;2022-11-20T13:21:38;100264.59;;;1.10;63.52
74834;BME280;63361;52.384;20.930;2022-11-20T13:24:05;100261.28;;;0.96;64.58
74834;BME280;63361;52.384;20.930;2022-11-20T13:26:31;100261.72;;;0.75;65.07
74834;BME280;63361;52.384;20.930;2022-11-20T13:29:09;100246.66;;;0.44;66.88
74834;BME280;63361;52.384;20.930;2022-11-20T13:31:39;100256.47;;;0.44;68.25
74834;BME280;63361;52.384;20.930;2022-11-20T13:34:33;100266.53;;;0.35;69.67
74834;BME280;63361;52.384;20.930;2022-11-20T13:36:58;100256.00;;;-0.03;71.18
74834;BME280;63361;52.384;20.930;2022-11-20T13:39:31;100264.25;;;-0.18;71.74
74834;BME280;63361;52.384;20.930;2022-11-20T13:42:01;100255.91;;;-0.21;72.20
74834;BME280;63361;52.384;20.930;2022-11-20T13:44:44;100270.13;;;-0.09;72.63
74834;BME280;63361;52.384;20.930;2022-11-20T13:47:23;100262.97;;;-0.09;72.55
74834;BME280;63361;52.384;20.930;2022-11-20T13:49:51;100258.38;;;-0.26;73.34
74834;BME280;63361;52.384;20.930;2022-11-20T13:55:42;100241.53;;;-0.39;74.20
74834;BME280;63361;52.384;20.930;2022-11-20T14:00:55;100227.75;;;-0.60;75.10
74834;BME280;63361;52.384;20.930;2022-11-20T14:03:23;100237.94;;;-0.57;75.90
74834;BME280;63361;52.384;20.930;2022-11-20T14:05:55;100231.22;;;-0.60;76.74
74834;BME280;63361;52.384;20.930;2022-11-20T14:08:29;100209.31;;;-0.80;77.32
74834;BME280;63361;52.384;20.930;2022-11-20T14:11:17;100224.13;;;-0.73;77.53
74834;BME280;63361;52.384;20.930;2022-11-20T14:14:02;100230.47;;;-0.74;78.00
74834;BME280;63361;52.384;20.930;2022-11-20T14:16:35;100230.72;;;-0.82;77.94
74834;BME280;63361;52.384;20.930;2022-11-20T14:21:45;100231.38;;;-0.93;78.74